sensor_id;sensor_type;location;lat;lon;timestamp;P1;durP1;ratioP1;P2;durP2;ratioP2
70067;SDS011;57425;51.616;6.680;2023-01-29T00:01:54;34.33;;;16.20;;
70067;SDS011;57425;51.616;6.680;2023-01-29T00:04:20;37.27;;;17.17;;
70067;SDS011;57425;51.616;6.680;2023-01-29T00:06:46;43.63;;;16.97;;
70067;SDS011;57425;51.616;6.680;2023-01-29T00:09:12;34.97;;;15.97;;
70067;SDS011;57425;51.616;6.680;2023-01-29T00:11:38;40.50;;;16.20;;
70067;SDS011;57425;51.616;6.680;2023-01-29T00:14:04;40.33;;;18.07;;
70067;SDS011;57425;51.616;6.680;2023-01-29T00:16:30;35.43;;;16.30;;
70067;SDS011;57425;51.616;6.680;2023-01-29T00:18:56;35.77;;;15.90;;
70067;SDS011;57425;51.616;6.680;2023-01-29T00:21:22;36.27;;;16.07;;
70067;SDS011;57425;51.616;6.680;2023-01-29T00:23:49;35.23;;;15.20;;
70067;SDS011;57425;51.616;6.680;2023-01-29T00:26:15;40.03;;;16.70;;
70067;SDS011;57425;51.616;6.680;2023-01-29T00:28:41;40.27;;;15.33;;
70067;SDS011;57425;51.616;6.680;2023-01-29T00:33:33;44.30;;;15.57;;
70067;SDS011;57425;51.616;6.680;2023-01-29T00:36:01;37.03;;;16.50;;
70067;SDS011;57425;51.616;6.680;2023-01-29T00:38:28;33.57;;;15.43;;
70067;SDS011;57425;51.616;6.680;2023-01-29T00:40:53;34.47;;;15.53;;
70067;SDS011;57425;51.616;6.680;2023-01-29T00:46:21;30.67;;;14.02;;
70067;SDS011;57425;51.616;6.680;2023-01-29T00:48:47;40.20;;;15.20;;
70067;SDS011;57425;51.616;6.680;2023-01-29T00:51:13;39.70;;;15.67;;
70067;SDS011;57425;51.616;6.680;2023-01-29T00:53:38;35.50;;;14.33;;
70067;SDS011;57425;51.616;6.680;2023-01-29T00:56:04;33.57;;;13.47;;
70067;SDS011;57425;51.616;6.680;2023-01-29T00:58:30;35.00;;;15.27;;
70067;SDS011;57425;51.616;6.680;2023-01-29T01:00:59;34.27;;;13.30;;
70067;SDS011;57425;51.616;6.680;2023-01-29T01:03:26;35.83;;;14.63;;
70067;SDS011;57425;51.616;6.680;2023-01-29T01:06:02;30.97;;;14.53;;
70067;SDS011;57425;51.616;6.680;2023-01-29T01:08:29;32.63;;;15.33;;
70067;SDS011;57425;51.616;6.680;2023-01-29T01:13:38;37.20;;;14.73;;
70067;SDS011;57425;51.616;6.680;2023-01-29T01:16:14;37.33;;;14.40;;
70067;SDS011;57425;51.616;6.680;2023-01-29T01:18:42;37.83;;;14.93;;
70067;SDS011;57425;51.616;6.680;2023-01-29T01:21:08;36.27;;;14.37;;
70067;SDS011;57425;51.616;6.680;2023-01-29T01:23:33;33.57;;;13.70;;
70067;SDS011;57425;51.616;6.680;2023-01-29T01:25:59;35.33;;;15.57;;
70067;SDS011;57425;51.616;6.680;2023-01-29T01:28:25;43.23;;;15.90;;
70067;SDS011;57425;51.616;6.680;2023-01-29T01:30:51;41.07;;;14.60;;
70067;SDS011;57425;51.616;6.680;2023-01-29T01:33:17;36.80;;;14.07;;
70067;SDS011;57425;51.616;6.680;2023-01-29T01:35:42;42.73;;;14.83;;
70067;SDS011;57425;51.616;6.680;2023-01-29T01:38:08;32.57;;;14.27;;
70067;SDS011;57425;51.616;6.680;2023-01-29T01:40:34;33.87;;;13.17;;
70067;SDS011;57425;51.616;6.680;2023-01-29T01:43:00;31.33;;;14.40;;
70067;SDS011;57425;51.616;6.680;2023-01-29T01:45:27;35.93;;;14.13;;
70067;SDS011;57425;51.616;6.680;2023-01-29T01:50:34;31.20;;;14.03;;
70067;SDS011;57425;51.616;6.680;2023-01-29T01:53:04;36.37;;;15.03;;
70067;SDS011;57425;51.616;6.680;2023-01-29T01:55:32;35.03;;;14.33;;
70067;SDS011;57425;51.616;6.680;2023-01-29T01:58:08;33.47;;;13.53;;
70067;SDS011;57425;51.616;6.680;2023-01-29T02:00:37;34.63;;;14.77;;
70067;SDS011;57425;51.616;6.680;2023-01-29T02:03:03;38.60;;;15.60;;
70067;SDS011;57425;51.616;6.680;2023-01-29T02:05:51;33.07;;;13.93;;
70067;SDS011;57425;51.616;6.680;2023-01-29T02:08:46;32.27;;;13.07;;
70067;SDS011;57425;51.616;6.680;2023-01-29T02:11:32;31.93;;;13.03;;
70067;SDS011;57425;51.616;6.680;2023-01-29T02:13:59;36.17;;;13.27;;
70067;SDS011;57425;51.616;6.680;2023-01-29T02:16:24;33.20;;;13.70;;
70067;SDS011;57425;51.616;6.680;2023-01-29T02:18:50;32.67;;;13.30;;
70067;SDS011;57425;51.616;6.680;2023-01-29T02:27:05;34.03;;;15.03;;
70067;SDS011;57425;51.616;6.680;2023-01-29T02:32:28;33.17;;;14.23;;
70067;SDS011;57425;51.616;6.680;2023-01-29T02:40:29;33.27;;;15.27;;
70067;SDS011;57425;51.616;6.680;2023-01-29T02:48:22;28.63;;;12.20;;
70067;SDS011;57425;51.616;6.680;2023-01-29T02:50:56;29.37;;;13.70;;
70067;SDS011;57425;51.616;6.680;2023-01-29T02:53:37;28.17;;;12.43;;
70067;SDS011;57425;51.616;6.680;2023-01-29T02:56:11;31.23;;;13.00;;
70067;SDS011;57425;51.616;6.680;2023-01-29T02:58:49;36.13;;;13.83;;
70067;SDS011;57425;51.616;6.680;2023-01-29T03:01:44;35.40;;;14.93;;
70067;SDS011;57425;51.616;6.680;2023-01-29T03:04:15;34.83;;;14.13;;
70067;SDS011;57425;51.616;6.680;2023-01-29T03:06:47;32.83;;;13.87;;
70067;SDS011;57425;51.616;6.680;2023-01-29T03:09:25;35.58;;;14.75;;
70067;SDS011;57425;51.616;6.680;2023-01-29T03:12:09;32.50;;;13.18;;
70067;SDS011;57425;51.616;6.680;2023-01-29T03:15:07;34.80;;;13.43;;
70067;SDS011;57425;51.616;6.680;2023-01-29T03:20:10;32.83;;;13.47;;
70067;SDS011;57425;51.616;6.680;2023-01-29T03:22:43;41.97;;;15.60;;
70067;SDS011;57425;51.616;6.680;2023-01-29T03:25:14;32.03;;;12.43;;
70067;SDS011;57425;51.616;6.680;2023-01-29T03:28:03;33.67;;;13.60;;
70067;SDS011;57425;51.616;6.680;2023-01-29T03:30:53;31.17;;;12.33;;
70067;SDS011;57425;51.616;6.680;2023-01-29T03:33:42;36.13;;;13.70;;
70067;SDS011;57425;51.616;6.680;2023-01-29T03:36:29;30.87;;;12.47;;
70067;SDS011;57425;51.616;6.680;2023-01-29T03:39:04;27.50;;;12.13;;
70067;SDS011;57425;51.616;6.680;2023-01-29T03:41:33;35.33;;;12.83;;
70067;SDS011;57425;51.616;6.680;2023-01-29T03:44:16;31.87;;;12.40;;
70067;SDS011;57425;51.616;6.680;2023-01-29T03:47:34;32.50;;;13.30;;
70067;SDS011;57425;51.616;6.680;2023-01-29T03:54:57;28.53;;;13.10;;
70067;SDS011;57425;51.616;6.680;2023-01-29T03:57:42;34.40;;;13.53;;
70067;SDS011;57425;51.616;6.680;2023-01-29T04:00:22;34.17;;;13.17;;
70067;SDS011;57425;51.616;6.680;2023-01-29T04:05:36;30.97;;;12.07;;
70067;SDS011;57425;51.616;6.680;2023-01-29T04:08:09;33.90;;;14.97;;
70067;SDS011;57425;51.616;6.680;2023-01-29T04:10:37;33.03;;;13.33;;
70067;SDS011;57425;51.616;6.680;2023-01-29T04:13:05;33.13;;;13.10;;
70067;SDS011;57425;51.616;6.680;2023-01-29T04:15:36;34.40;;;14.20;;
70067;SDS011;57425;51.616;6.680;2023-01-29T04:18:10;30.67;;;13.43;;
70067;SDS011;57425;51.616;6.680;2023-01-29T04:20:35;32.27;;;12.93;;
70067;SDS011;57425;51.616;6.680;2023-01-29T04:23:04;34.50;;;13.83;;
70067;SDS011;57425;51.616;6.680;2023-01-29T04:25:33;34.87;;;14.67;;
70067;SDS011;57425;51.616;6.680;2023-01-29T04:29:11;33.80;;;13.47;;
70067;SDS011;57425;51.616;6.680;2023-01-29T04:31:22;31.73;;;13.00;;
70067;SDS011;57425;51.616;6.680;2023-01-29T04:39:08;33.97;;;12.80;;
70067;SDS011;57425;51.616;6.680;2023-01-29T04:41:49;37.77;;;12.67;;
70067;SDS011;57425;51.616;6.680;2023-01-29T04:44:34;34.63;;;13.63;;
70067;SDS011;57425;51.616;6.680;2023-01-29T04:52:54;36.17;;;11.93;;
70067;SDS011;57425;51.616;6.680;2023-01-29T04:55:43;35.53;;;14.13;;
70067;SDS011;57425;51.616;6.680;2023-01-29T05:00:48;31.17;;;11.75;;
70067;SDS011;57425;51.616;6.680;2023-01-29T05:03:18;33.97;;;13.70;;
70067;SDS011;57425;51.616;6.680;2023-01-29T05:05:47;33.63;;;11.97;;
70067;SDS011;57425;51.616;6.680;2023-01-29T05:08:16;33.63;;;13.00;;
70067;SDS011;57425;51.616;6.680;2023-01-29T05:10:44;30.93;;;12.90;;
70067;SDS011;57425;51.616;6.680;2023-01-29T05:13:12;30.27;;;12.43;;
70067;SDS011;57425;51.616;6.680;2023-01-29T05:18:37;29.07;;;12.83;;
70067;SDS011;57425;51.616;6.680;2023-01-29T05:21:04;33.10;;;12.97;;
70067;SDS011;57425;51.616;6.680;2023-01-29T05:23:32;33.40;;;13.63;;
70067;SDS011;57425;51.616;6.680;2023-01-29T05:25:57;31.87;;;13.20;;
70067;SDS011;57425;51.616;6.680;2023-01-29T05:28:23;39.40;;;13.93;;
70067;SDS011;57425;51.616;6.680;2023-01-29T05:30:50;41.00;;;14.63;;
70067;SDS011;57425;51.616;6.680;2023-01-29T05:33:27;33.50;;;13.47;;
70067;SDS011;57425;51.616;6.680;2023-01-29T05:35:55;32.50;;;12.13;;
70067;SDS011;57425;51.616;6.680;2023-01-29T05:38:23;27.47;;;11.93;;
70067;SDS011;57425;51.616;6.680;2023-01-29T05:40:49;33.40;;;12.67;;
70067;SDS011;57425;51.616;6.680;2023-01-29T05:43:19;33.17;;;13.50;;
70067;SDS011;57425;51.616;6.680;2023-01-29T05:45:52;29.87;;;12.53;;
70067;SDS011;57425;51.616;6.680;2023-01-29T05:48:19;29.63;;;11.75;;
70067;SDS011;57425;51.616;6.680;2023-01-29T05:50:45;33.63;;;13.17;;
70067;SDS011;57425;51.616;6.680;2023-01-29T05:53:11;33.63;;;13.13;;
70067;SDS011;57425;51.616;6.680;2023-01-29T05:55:37;33.80;;;13.50;;
70067;SDS011;57425;51.616;6.680;2023-01-29T05:58:02;29.87;;;11.60;;
70067;SDS011;57425;51.616;6.680;2023-01-29T06:00:28;30.73;;;12.70;;
70067;SDS011;57425;51.616;6.680;2023-01-29T06:02:53;29.50;;;12.47;;
70067;SDS011;57425;51.616;6.680;2023-01-29T06:05:20;30.27;;;10.93;;
70067;SDS011;57425;51.616;6.680;2023-01-29T06:07:46;27.77;;;11.90;;
70067;SDS011;57425;51.616;6.680;2023-01-29T06:10:15;31.13;;;11.90;;
70067;SDS011;57425;51.616;6.680;2023-01-29T06:12:41;37.20;;;11.47;;
70067;SDS011;57425;51.616;6.680;2023-01-29T06:15:08;35.70;;;13.40;;
70067;SDS011;57425;51.616;6.680;2023-01-29T06:17:35;33.37;;;13.53;;
70067;SDS011;57425;51.616;6.680;2023-01-29T06:20:00;31.33;;;12.00;;
70067;SDS011;57425;51.616;6.680;2023-01-29T06:22:26;39.40;;;12.10;;
70067;SDS011;57425;51.616;6.680;2023-01-29T06:24:51;34.43;;;13.30;;
70067;SDS011;57425;51.616;6.680;2023-01-29T06:27:17;31.00;;;12.77;;
70067;SDS011;57425;51.616;6.680;2023-01-29T06:29:43;32.13;;;12.67;;
70067;SDS011;57425;51.616;6.680;2023-01-29T06:32:08;30.60;;;12.90;;
70067;SDS011;57425;51.616;6.680;2023-01-29T06:34:34;34.27;;;13.33;;
70067;SDS011;57425;51.616;6.680;2023-01-29T06:36:59;30.13;;;12.60;;
70067;SDS011;57425;51.616;6.680;2023-01-29T06:39:25;31.97;;;13.80;;
70067;SDS011;57425;51.616;6.680;2023-01-29T06:41:50;30.83;;;12.87;;
70067;SDS011;57425;51.616;6.680;2023-01-29T06:44:16;25.83;;;12.03;;
70067;SDS011;57425;51.616;6.680;2023-01-29T06:46:43;33.80;;;13.43;;
70067;SDS011;57425;51.616;6.680;2023-01-29T06:49:08;33.37;;;13.53;;
70067;SDS011;57425;51.616;6.680;2023-01-29T06:51:34;32.67;;;12.17;;
70067;SDS011;57425;51.616;6.680;2023-01-29T06:54:00;32.47;;;12.70;;
70067;SDS011;57425;51.616;6.680;2023-01-29T06:56:25;43.63;;;13.13;;
70067;SDS011;57425;51.616;6.680;2023-01-29T06:58:51;32.40;;;12.47;;
70067;SDS011;57425;51.616;6.680;2023-01-29T07:01:16;35.37;;;12.87;;
70067;SDS011;57425;51.616;6.680;2023-01-29T07:03:42;31.47;;;13.80;;
70067;SDS011;57425;51.616;6.680;2023-01-29T07:06:08;33.10;;;12.47;;
70067;SDS011;57425;51.616;6.680;2023-01-29T07:08:37;32.03;;;12.23;;
70067;SDS011;57425;51.616;6.680;2023-01-29T07:11:04;30.10;;;12.13;;
70067;SDS011;57425;51.616;6.680;2023-01-29T07:13:30;31.60;;;12.20;;
70067;SDS011;57425;51.616;6.680;2023-01-29T07:15:57;34.50;;;12.17;;
70067;SDS011;57425;51.616;6.680;2023-01-29T07:18:26;35.60;;;12.53;;
70067;SDS011;57425;51.616;6.680;2023-01-29T07:20:53;31.67;;;12.00;;
70067;SDS011;57425;51.616;6.680;2023-01-29T07:23:19;35.60;;;14.10;;
70067;SDS011;57425;51.616;6.680;2023-01-29T07:25:45;42.07;;;15.27;;
70067;SDS011;57425;51.616;6.680;2023-01-29T07:28:13;40.97;;;15.33;;
70067;SDS011;57425;51.616;6.680;2023-01-29T07:30:43;35.00;;;12.17;;
70067;SDS011;57425;51.616;6.680;2023-01-29T07:33:09;28.07;;;10.90;;
70067;SDS011;57425;51.616;6.680;2023-01-29T07:35:36;33.70;;;11.93;;
70067;SDS011;57425;51.616;6.680;2023-01-29T07:38:04;31.23;;;12.57;;
70067;SDS011;57425;51.616;6.680;2023-01-29T07:40:30;30.80;;;12.33;;
70067;SDS011;57425;51.616;6.680;2023-01-29T07:42:57;29.63;;;12.57;;
70067;SDS011;57425;51.616;6.680;2023-01-29T07:45:27;34.73;;;13.77;;
70067;SDS011;57425;51.616;6.680;2023-01-29T07:47:53;31.07;;;12.30;;
70067;SDS011;57425;51.616;6.680;2023-01-29T07:50:23;42.53;;;14.70;;
70067;SDS011;57425;51.616;6.680;2023-01-29T07:52:50;31.50;;;12.23;;
70067;SDS011;57425;51.616;6.680;2023-01-29T07:55:16;36.70;;;14.10;;
70067;SDS011;57425;51.616;6.680;2023-01-29T07:57:41;38.47;;;13.77;;
70067;SDS011;57425;51.616;6.680;2023-01-29T08:00:08;32.83;;;13.40;;
70067;SDS011;57425;51.616;6.680;2023-01-29T08:02:34;31.90;;;14.10;;
70067;SDS011;57425;51.616;6.680;2023-01-29T08:05:00;34.17;;;15.17;;
70067;SDS011;57425;51.616;6.680;2023-01-29T08:07:26;32.37;;;13.90;;
70067;SDS011;57425;51.616;6.680;2023-01-29T08:09:51;35.33;;;14.43;;
70067;SDS011;57425;51.616;6.680;2023-01-29T08:12:17;36.73;;;13.93;;
70067;SDS011;57425;51.616;6.680;2023-01-29T08:14:42;37.77;;;14.07;;
70067;SDS011;57425;51.616;6.680;2023-01-29T08:17:10;34.47;;;13.40;;
70067;SDS011;57425;51.616;6.680;2023-01-29T08:19:36;31.83;;;13.23;;
70067;SDS011;57425;51.616;6.680;2023-01-29T08:22:02;35.33;;;14.20;;
70067;SDS011;57425;51.616;6.680;2023-01-29T08:24:29;34.77;;;13.90;;
70067;SDS011;57425;51.616;6.680;2023-01-29T08:26:54;38.97;;;14.60;;
70067;SDS011;57425;51.616;6.680;2023-01-29T08:29:21;38.73;;;14.77;;
70067;SDS011;57425;51.616;6.680;2023-01-29T08:31:47;34.83;;;14.73;;
70067;SDS011;57425;51.616;6.680;2023-01-29T08:34:12;38.10;;;14.47;;
70067;SDS011;57425;51.616;6.680;2023-01-29T08:36:38;37.70;;;15.30;;
70067;SDS011;57425;51.616;6.680;2023-01-29T08:39:04;37.10;;;14.67;;
70067;SDS011;57425;51.616;6.680;2023-01-29T08:41:31;32.97;;;13.47;;
70067;SDS011;57425;51.616;6.680;2023-01-29T08:43:57;37.03;;;13.93;;
70067;SDS011;57425;51.616;6.680;2023-01-29T08:46:24;41.33;;;15.03;;
70067;SDS011;57425;51.616;6.680;2023-01-29T08:48:50;35.63;;;12.73;;
70067;SDS011;57425;51.616;6.680;2023-01-29T08:51:15;32.70;;;13.53;;
70067;SDS011;57425;51.616;6.680;2023-01-29T08:53:41;43.60;;;15.03;;
70067;SDS011;57425;51.616;6.680;2023-01-29T08:56:06;37.90;;;13.90;;
70067;SDS011;57425;51.616;6.680;2023-01-29T08:58:32;41.80;;;16.13;;
70067;SDS011;57425;51.616;6.680;2023-01-29T09:01:05;34.83;;;13.73;;
70067;SDS011;57425;51.616;6.680;2023-01-29T09:03:34;35.07;;;14.00;;
70067;SDS011;57425;51.616;6.680;2023-01-29T09:06:00;29.47;;;13.23;;
70067;SDS011;57425;51.616;6.680;2023-01-29T09:08:27;34.80;;;13.50;;
70067;SDS011;57425;51.616;6.680;2023-01-29T09:10:52;35.50;;;14.17;;
70067;SDS011;57425;51.616;6.680;2023-01-29T09:13:18;38.73;;;14.87;;
70067;SDS011;57425;51.616;6.680;2023-01-29T09:15:44;41.60;;;15.20;;
70067;SDS011;57425;51.616;6.680;2023-01-29T09:18:09;43.33;;;16.40;;
70067;SDS011;57425;51.616;6.680;2023-01-29T09:20:35;40.20;;;15.83;;
70067;SDS011;57425;51.616;6.680;2023-01-29T09:23:05;42.53;;;16.47;;
70067;SDS011;57425;51.616;6.680;2023-01-29T09:25:32;39.20;;;15.83;;
70067;SDS011;57425;51.616;6.680;2023-01-29T09:27:58;40.60;;;15.53;;
70067;SDS011;57425;51.616;6.680;2023-01-29T09:30:24;36.80;;;15.33;;
70067;SDS011;57425;51.616;6.680;2023-01-29T09:32:50;46.93;;;17.30;;
70067;SDS011;57425;51.616;6.680;2023-01-29T09:35:15;39.80;;;15.13;;
70067;SDS011;57425;51.616;6.680;2023-01-29T09:37:41;37.47;;;14.33;;
70067;SDS011;57425;51.616;6.680;2023-01-29T09:40:08;38.10;;;14.47;;
70067;SDS011;57425;51.616;6.680;2023-01-29T09:42:49;40.77;;;14.80;;
70067;SDS011;57425;51.616;6.680;2023-01-29T09:45:22;36.67;;;13.93;;
70067;SDS011;57425;51.616;6.680;2023-01-29T09:47:50;39.33;;;14.47;;
70067;SDS011;57425;51.616;6.680;2023-01-29T09:50:21;42.70;;;17.10;;
70067;SDS011;57425;51.616;6.680;2023-01-29T09:57:53;40.63;;;15.17;;
70067;SDS011;57425;51.616;6.680;2023-01-29T10:00:23;40.17;;;15.30;;
70067;SDS011;57425;51.616;6.680;2023-01-29T10:06:03;40.97;;;15.10;;
70067;SDS011;57425;51.616;6.680;2023-01-29T10:16:48;50.47;;;18.48;;
70067;SDS011;57425;51.616;6.680;2023-01-29T10:24:56;39.17;;;16.13;;
70067;SDS011;57425;51.616;6.680;2023-01-29T10:27:28;38.80;;;15.00;;
70067;SDS011;57425;51.616;6.680;2023-01-29T10:30:03;40.13;;;15.13;;
70067;SDS011;57425;51.616;6.680;2023-01-29T10:32:34;47.33;;;17.17;;
70067;SDS011;57425;51.616;6.680;2023-01-29T10:35:02;44.67;;;17.77;;
70067;SDS011;57425;51.616;6.680;2023-01-29T10:37:40;38.43;;;15.80;;
70067;SDS011;57425;51.616;6.680;2023-01-29T10:40:15;39.63;;;15.37;;
70067;SDS011;57425;51.616;6.680;2023-01-29T10:42:44;44.23;;;17.47;;
70067;SDS011;57425;51.616;6.680;2023-01-29T10:45:33;42.27;;;15.43;;
70067;SDS011;57425;51.616;6.680;2023-01-29T10:49:28;43.03;;;16.30;;
70067;SDS011;57425;51.616;6.680;2023-01-29T10:51:32;34.50;;;14.80;;
70067;SDS011;57425;51.616;6.680;2023-01-29T11:02:43;43.03;;;17.80;;
70067;SDS011;57425;51.616;6.680;2023-01-29T11:05:33;45.17;;;16.27;;
70067;SDS011;57425;51.616;6.680;2023-01-29T11:08:14;39.67;;;15.93;;
70067;SDS011;57425;51.616;6.680;2023-01-29T11:14:03;43.73;;;16.20;;
70067;SDS011;57425;51.616;6.680;2023-01-29T11:16:43;49.93;;;17.23;;
70067;SDS011;57425;51.616;6.680;2023-01-29T11:19:12;36.53;;;15.73;;
70067;SDS011;57425;51.616;6.680;2023-01-29T11:21:54;39.17;;;15.70;;
70067;SDS011;57425;51.616;6.680;2023-01-29T11:24:22;36.70;;;15.00;;
70067;SDS011;57425;51.616;6.680;2023-01-29T11:26:48;40.97;;;17.57;;
70067;SDS011;57425;51.616;6.680;2023-01-29T11:29:37;43.50;;;15.87;;
70067;SDS011;57425;51.616;6.680;2023-01-29T11:32:05;42.97;;;15.87;;
70067;SDS011;57425;51.616;6.680;2023-01-29T11:34:35;41.70;;;15.20;;
70067;SDS011;57425;51.616;6.680;2023-01-29T11:42:47;33.23;;;13.73;;
70067;SDS011;57425;51.616;6.680;2023-01-29T11:45:24;39.17;;;16.80;;
70067;SDS011;57425;51.616;6.680;2023-01-29T11:47:52;38.03;;;14.70;;
70067;SDS011;57425;51.616;6.680;2023-01-29T11:50:23;35.57;;;14.97;;
70067;SDS011;57425;51.616;6.680;2023-01-29T11:52:53;39.73;;;14.33;;
70067;SDS011;57425;51.616;6.680;2023-01-29T11:55:20;40.07;;;14.87;;
70067;SDS011;57425;51.616;6.680;2023-01-29T11:57:50;41.47;;;18.63;;
70067;SDS011;57425;51.616;6.680;2023-01-29T12:00:35;33.67;;;13.33;;
70067;SDS011;57425;51.616;6.680;2023-01-29T12:03:20;46.03;;;16.47;;
70067;SDS011;57425;51.616;6.680;2023-01-29T12:05:56;40.13;;;15.07;;
70067;SDS011;57425;51.616;6.680;2023-01-29T12:08:36;32.93;;;13.07;;
70067;SDS011;57425;51.616;6.680;2023-01-29T12:13:40;32.23;;;12.57;;
70067;SDS011;57425;51.616;6.680;2023-01-29T12:16:12;40.40;;;15.47;;
70067;SDS011;57425;51.616;6.680;2023-01-29T12:18:46;39.10;;;16.07;;
70067;SDS011;57425;51.616;6.680;2023-01-29T12:24:17;36.60;;;14.68;;
70067;SDS011;57425;51.616;6.680;2023-01-29T12:35:49;36.93;;;13.53;;
70067;SDS011;57425;51.616;6.680;2023-01-29T12:40:46;38.83;;;15.13;;
70067;SDS011;57425;51.616;6.680;2023-01-29T12:43:17;38.33;;;15.77;;
70067;SDS011;57425;51.616;6.680;2023-01-29T12:45:47;28.33;;;11.77;;
70067;SDS011;57425;51.616;6.680;2023-01-29T12:48:35;30.50;;;12.30;;
70067;SDS011;57425;51.616;6.680;2023-01-29T12:51:05;37.87;;;15.23;;
70067;SDS011;57425;51.616;6.680;2023-01-29T12:53:46;31.87;;;12.90;;
70067;SDS011;57425;51.616;6.680;2023-01-29T12:56:29;41.60;;;14.70;;
70067;SDS011;57425;51.616;6.680;2023-01-29T12:59:19;33.93;;;13.53;;
70067;SDS011;57425;51.616;6.680;2023-01-29T13:01:56;36.03;;;13.67;;
70067;SDS011;57425;51.616;6.680;2023-01-29T13:07:05;39.70;;;15.60;;
70067;SDS011;57425;51.616;6.680;2023-01-29T13:09:45;28.40;;;12.60;;
70067;SDS011;57425;51.616;6.680;2023-01-29T13:12:16;36.87;;;13.27;;
70067;SDS011;57425;51.616;6.680;2023-01-29T13:14:48;39.77;;;14.60;;
70067;SDS011;57425;51.616;6.680;2023-01-29T13:19:56;30.33;;;12.53;;
70067;SDS011;57425;51.616;6.680;2023-01-29T13:22:26;29.20;;;12.73;;
70067;SDS011;57425;51.616;6.680;2023-01-29T13:24:56;32.77;;;13.90;;
70067;SDS011;57425;51.616;6.680;2023-01-29T13:27:25;31.97;;;14.53;;
70067;SDS011;57425;51.616;6.680;2023-01-29T13:29:53;32.90;;;12.93;;
70067;SDS011;57425;51.616;6.680;2023-01-29T13:32:22;31.93;;;13.03;;
70067;SDS011;57425;51.616;6.680;2023-01-29T13:34:56;31.57;;;13.37;;
70067;SDS011;57425;51.616;6.680;2023-01-29T13:37:31;30.07;;;12.63;;
70067;SDS011;57425;51.616;6.680;2023-01-29T13:40:03;36.37;;;15.23;;
70067;SDS011;57425;51.616;6.680;2023-01-29T13:45:18;30.23;;;12.30;;
70067;SDS011;57425;51.616;6.680;2023-01-29T13:47:46;35.73;;;14.27;;
70067;SDS011;57425;51.616;6.680;2023-01-29T13:50:18;28.97;;;11.67;;
70067;SDS011;57425;51.616;6.680;2023-01-29T13:52:57;30.27;;;12.63;;
70067;SDS011;57425;51.616;6.680;2023-01-29T13:58:05;39.47;;;13.33;;
70067;SDS011;57425;51.616;6.680;2023-01-29T14:07:56;33.87;;;12.23;;
70067;SDS011;57425;51.616;6.680;2023-01-29T14:10:26;26.17;;;11.60;;
70067;SDS011;57425;51.616;6.680;2023-01-29T14:12:53;29.93;;;11.50;;
70067;SDS011;57425;51.616;6.680;2023-01-29T14:15:33;26.13;;;11.23;;
70067;SDS011;57425;51.616;6.680;2023-01-29T14:18:18;27.87;;;11.47;;
70067;SDS011;57425;51.616;6.680;2023-01-29T14:23:57;29.77;;;11.60;;
70067;SDS011;57425;51.616;6.680;2023-01-29T14:26:20;28.37;;;11.33;;
70067;SDS011;57425;51.616;6.680;2023-01-29T14:29:02;28.50;;;12.20;;
70067;SDS011;57425;51.616;6.680;2023-01-29T14:37:01;27.55;;;11.90;;
70067;SDS011;57425;51.616;6.680;2023-01-29T14:39:44;26.53;;;11.13;;
70067;SDS011;57425;51.616;6.680;2023-01-29T14:42:35;30.73;;;11.77;;
70067;SDS011;57425;51.616;6.680;2023-01-29T14:45:21;30.17;;;12.02;;
70067;SDS011;57425;51.616;6.680;2023-01-29T14:47:57;33.40;;;12.47;;
70067;SDS011;57425;51.616;6.680;2023-01-29T14:56:20;26.37;;;10.63;;
70067;SDS011;57425;51.616;6.680;2023-01-29T15:01:25;28.20;;;11.17;;
70067;SDS011;57425;51.616;6.680;2023-01-29T15:04:02;28.70;;;12.13;;
70067;SDS011;57425;51.616;6.680;2023-01-29T15:06:44;32.07;;;12.33;;
70067;SDS011;57425;51.616;6.680;2023-01-29T15:12:51;29.87;;;11.33;;
70067;SDS011;57425;51.616;6.680;2023-01-29T15:15:36;29.43;;;12.00;;
70067;SDS011;57425;51.616;6.680;2023-01-29T15:18:18;28.00;;;11.00;;
70067;SDS011;57425;51.616;6.680;2023-01-29T15:21:29;26.40;;;10.60;;
70067;SDS011;57425;51.616;6.680;2023-01-29T15:23:47;28.43;;;10.67;;
70067;SDS011;57425;51.616;6.680;2023-01-29T15:26:28;28.07;;;10.87;;
70067;SDS011;57425;51.616;6.680;2023-01-29T15:28:55;25.47;;;10.57;;
70067;SDS011;57425;51.616;6.680;2023-01-29T15:31:23;31.90;;;11.63;;
70067;SDS011;57425;51.616;6.680;2023-01-29T15:33:50;33.73;;;12.53;;
70067;SDS011;57425;51.616;6.680;2023-01-29T15:36:27;27.83;;;11.70;;
70067;SDS011;57425;51.616;6.680;2023-01-29T15:39:14;30.63;;;11.60;;
70067;SDS011;57425;51.616;6.680;2023-01-29T15:41:45;32.90;;;13.50;;
70067;SDS011;57425;51.616;6.680;2023-01-29T15:44:12;24.50;;;11.03;;
70067;SDS011;57425;51.616;6.680;2023-01-29T15:46:40;26.93;;;11.43;;
70067;SDS011;57425;51.616;6.680;2023-01-29T15:49:14;28.97;;;11.23;;
70067;SDS011;57425;51.616;6.680;2023-01-29T15:51:53;25.60;;;11.17;;
70067;SDS011;57425;51.616;6.680;2023-01-29T15:54:21;37.77;;;12.87;;
70067;SDS011;57425;51.616;6.680;2023-01-29T15:56:49;28.43;;;12.17;;
70067;SDS011;57425;51.616;6.680;2023-01-29T15:59:17;26.27;;;10.93;;
70067;SDS011;57425;51.616;6.680;2023-01-29T16:01:47;32.47;;;11.23;;
70067;SDS011;57425;51.616;6.680;2023-01-29T16:04:15;31.37;;;11.70;;
70067;SDS011;57425;51.616;6.680;2023-01-29T16:06:44;27.33;;;11.60;;
70067;SDS011;57425;51.616;6.680;2023-01-29T16:09:16;21.70;;;9.83;;
70067;SDS011;57425;51.616;6.680;2023-01-29T16:11:45;30.13;;;11.90;;
70067;SDS011;57425;51.616;6.680;2023-01-29T16:14:13;32.80;;;13.37;;
70067;SDS011;57425;51.616;6.680;2023-01-29T16:16:43;25.17;;;10.83;;
70067;SDS011;57425;51.616;6.680;2023-01-29T16:19:25;31.57;;;11.33;;
70067;SDS011;57425;51.616;6.680;2023-01-29T16:21:59;27.83;;;11.30;;
70067;SDS011;57425;51.616;6.680;2023-01-29T16:24:28;29.67;;;11.83;;
70067;SDS011;57425;51.616;6.680;2023-01-29T16:26:59;37.00;;;13.03;;
70067;SDS011;57425;51.616;6.680;2023-01-29T16:29:31;32.80;;;11.83;;
70067;SDS011;57425;51.616;6.680;2023-01-29T16:31:58;26.63;;;10.50;;
70067;SDS011;57425;51.616;6.680;2023-01-29T16:37:05;27.40;;;12.10;;
70067;SDS011;57425;51.616;6.680;2023-01-29T16:39:43;31.60;;;11.83;;
70067;SDS011;57425;51.616;6.680;2023-01-29T16:44:44;29.93;;;12.73;;
70067;SDS011;57425;51.616;6.680;2023-01-29T16:47:20;31.53;;;11.43;;
70067;SDS011;57425;51.616;6.680;2023-01-29T16:50:02;34.67;;;11.73;;
70067;SDS011;57425;51.616;6.680;2023-01-29T16:52:55;41.00;;;12.87;;
70067;SDS011;57425;51.616;6.680;2023-01-29T16:55:35;29.87;;;11.53;;
70067;SDS011;57425;51.616;6.680;2023-01-29T16:58:11;32.23;;;10.80;;
70067;SDS011;57425;51.616;6.680;2023-01-29T17:00:47;33.17;;;13.00;;
70067;SDS011;57425;51.616;6.680;2023-01-29T17:03:19;27.17;;;12.17;;
70067;SDS011;57425;51.616;6.680;2023-01-29T17:05:45;39.13;;;13.60;;
70067;SDS011;57425;51.616;6.680;2023-01-29T17:08:16;31.30;;;13.60;;
70067;SDS011;57425;51.616;6.680;2023-01-29T17:10:49;34.10;;;13.20;;
70067;SDS011;57425;51.616;6.680;2023-01-29T17:13:23;29.10;;;10.63;;
70067;SDS011;57425;51.616;6.680;2023-01-29T17:15:53;41.77;;;14.10;;
70067;SDS011;57425;51.616;6.680;2023-01-29T17:18:27;30.87;;;12.93;;
70067;SDS011;57425;51.616;6.680;2023-01-29T17:20:53;32.47;;;12.00;;
70067;SDS011;57425;51.616;6.680;2023-01-29T17:23:19;38.73;;;15.87;;